Latest Coastal Weather Observations for Shark Bay Airport

IDW60701

Issued at 3:23 am WST Wednesday 17 January 2018 (issued every 10 minutes, with the page automatically refreshed every 10 minutes)

About coastal observations | Map of coastal stations | Coastal observations for WA | Marine services | Other Formats
Station Details ID: 006105 Name: SHARK BAY AIRPORT Lat: -25.89 Lon: 113.58 Height: 33.8 m
Data from the previous 72 hours. | See also: Recent months at Shark Bay Airport
Date/Time
WST
Temp
°C
Wind Pressure Rain since
9am
mm
Weather Cloud Vis
km
Sea
Height
m
Swell
Dir  Spd
kts
Gust
kts
hPa Trend Height
m
Period
s
Dir
17/03:00am 24.1 S 8 11 1007.1 - 0.0 - - - - - - -
17/02:30am 23.9 SSW 9 13 1007.0 - 0.0 - - - - - - -
17/02:00am 24.1 SSW 10 13 1006.8 - 0.0 - - - - - - -
17/01:30am 23.8 SSW 10 16 1006.9 - 0.0 - - - - - - -
17/01:00am 23.9 SSW 12 17 1006.9 - 0.0 - - - - - - -
17/12:30am 24.2 SSW 11 15 1006.9 - 0.0 - - - - - - -
17/12:00am 24.0 SW 13 18 1007.3 - 0.0 - - - - - - -
 
Date/Time
WST
Temp
°C
Wind Pressure Rain since
9am
mm
Weather Cloud Vis
km
Sea
Height
m
Swell
Dir  Spd
kts
Gust
kts
hPa Trend Height
m
Period
s
Dir
16/11:30pm 23.8 SW 13 19 1007.5 - 0.0 - - - - - - -
16/11:00pm 23.9 SW 11 16 1007.8 - 0.0 - - - - - - -
16/10:30pm 24.0 SSW 13 18 1007.9 - 0.0 - - - - - - -
16/10:00pm 24.1 SW 13 18 1007.7 - 0.0 - - - - - - -
16/09:30pm 24.4 SW 13 17 1007.6 - 0.0 - - - - - - -
16/09:00pm 24.6 SW 12 16 1007.3 - 0.0 - - - - - - -
16/08:30pm 24.7 SW 12 17 1007.2 - 0.0 - - - - - - -
16/08:00pm 24.8 SW 13 18 1006.9 - 0.0 - - - - - - -
16/07:30pm 25.0 SW 12 17 1006.6 - 0.0 - - - - - - -
16/07:00pm 25.5 WSW 14 19 1006.1 - 0.0 - - - - - - -
16/06:30pm 26.0 WSW 15 19 1006.0 - 0.0 - - - - - - -
16/06:00pm 27.0 WSW 15 20 1005.8 - 0.0 - - - - - - -
16/05:30pm 27.7 WSW 16 19 1005.7 - 0.0 - - - - - - -
16/05:00pm 29.7 WSW 13 19 1005.7 - 0.0 - - - - - - -
16/04:30pm 29.8 WSW 12 16 1005.9 - 0.0 - - - - - - -
16/04:00pm 30.9 W 13 18 1006.0 - 0.0 - - - - - - -
16/03:30pm 31.8 W 11 15 1006.1 - 0.0 - - - - - - -
16/03:00pm 31.3 WNW 9 15 1006.3 - 0.0 - - - - - - -
16/02:30pm 31.3 WNW 10 16 1006.6 - 0.0 - - - - - - -
16/02:00pm 31.5 W 10 15 1006.6 - 0.0 - - - - - - -
16/01:30pm 32.0 WNW 10 16 1006.7 - 0.0 - - - - - - -
16/01:00pm 31.1 W 13 17 1006.8 - 0.0 - - - - - - -
16/12:30pm 30.5 W 12 18 1007.0 - 0.0 - - - - - - -
16/12:00pm 30.0 WNW 12 16 1007.0 - 0.0 - - - - - - -
16/11:30am 30.8 W 10 14 1007.2 - 0.0 - - - - - - -
16/11:00am 30.4 WNW 9 13 1007.2 - 0.0 - - - - - - -
16/10:30am 29.2 NW 7 11 1007.4 - 0.0 - - - - - - -
16/10:00am 28.8 NW 7 10 1007.4 - 0.0 - - - - - - -
16/09:30am 27.5 WNW 5 8 1007.5 - 0.0 - - - - - - -
16/09:00am 26.3 W 6 8 1007.5 - 0.0 - - - - - - -
16/08:30am 26.0 WSW 7 9 1007.4 - 0.0 - - - - - - -
16/08:00am 25.4 W 8 10 1007.1 - 0.0 - - - - - - -
16/07:30am 25.0 W 7 9 1007.0 - 0.0 - - - - - - -
16/07:00am 25.0 WNW 5 6 1006.9 - 0.0 - - - - - - -
16/06:30am 24.6 W 5 6 1006.9 - 0.0 - - - - - - -
16/06:00am 24.4 W 6 8 1006.5 - 0.0 - - - - - - -
16/05:30am 24.4 W 6 9 1006.3 - 0.0 - - - - - - -
16/05:00am 24.4 W 6 7 1006.2 - 0.0 - - - - - - -
16/04:30am 24.3 W 6 8 1006.0 - 0.0 - - - - - - -
16/04:00am 24.5 WSW 6 8 1005.8 - 0.0 - - - - - - -
16/03:30am 24.4 WSW 7 9 1005.6 - 0.0 - - - - - - -
16/03:00am 24.3 WSW 6 7 1005.7 - 0.0 - - - - - - -
16/02:30am 24.1 W 4 5 1005.8 - 0.0 - - - - - - -
16/02:00am 23.7 SW 2 3 1006.0 - 0.0 - - - - - - -
16/01:30am 23.0 CALM 0 0 1006.1 - 0.0 - - - - - - -
16/01:00am 23.6 WSW 4 6 1006.1 - 0.0 - - - - - - -
16/12:30am 24.1 SW 7 9 1006.2 - 0.0 - - - - - - -
16/12:00am 24.4 WSW 7 9 1006.4 - 0.0 - - - - - - -
 
Date/Time
WST
Temp
°C
Wind Pressure Rain since
9am
mm
Weather Cloud Vis
km
Sea
Height
m
Swell
Dir  Spd
kts
Gust
kts
hPa Trend Height
m
Period
s
Dir
15/11:30pm 24.2 WSW 9 11 1006.4 - 0.0 - - - - - - -
15/11:00pm 24.3 WSW 8 10 1006.7 - 0.0 - - - - - - -
15/10:30pm 24.3 WSW 8 10 1006.7 - 0.0 - - - - - - -
15/10:00pm 24.6 WSW 9 12 1006.6 - 0.0 - - - - - - -
15/09:30pm 24.8 WSW 10 13 1006.4 - 0.0 - - - - - - -
15/09:00pm 25.0 WSW 8 11 1006.4 - 0.0 - - - - - - -
15/08:30pm 25.0 WSW 12 15 1005.8 - 0.0 - - - - - - -
15/08:00pm 25.4 WSW 11 15 1005.8 - 0.0 - - - - - - -
15/07:30pm 25.9 WSW 11 13 1005.6 - 0.0 - - - - - - -
15/07:00pm 26.8 WSW 11 14 1005.5 - 0.0 - - - - - - -
15/06:30pm 28.6 W 13 18 1005.3 - 0.0 - - - - - - -
15/06:00pm 30.0 W 11 15 1005.3 - 0.0 - - - - - - -
15/05:30pm 30.6 WNW 12 15 1005.3 - 0.0 - - - - - - -
15/05:00pm 31.4 WNW 11 14 1005.3 - 0.0 - - - - - - -
15/04:30pm 31.3 WNW 12 16 1005.5 - 0.0 - - - - - - -
15/04:00pm 32.4 W 12 16 1005.6 - 0.0 - - - - - - -
15/03:30pm 32.9 WNW 12 17 1005.8 - 0.0 - - - - - - -
15/03:00pm 33.4 WNW 12 17 1005.9 - 0.0 - - - - - - -
15/02:30pm 32.8 WNW 13 17 1006.2 - 0.0 - - - - - - -
15/02:00pm 33.1 WNW 13 19 1006.5 - 0.0 - - - - - - -
15/01:30pm 33.5 WNW 14 20 1006.4 - 0.0 - - - - - - -
15/01:00pm 33.2 WNW 16 21 1006.5 - 0.0 - - - - - - -
15/12:30pm 33.4 WNW 15 20 1006.6 - 0.0 - - - - - - -
15/12:00pm 33.8 WNW 14 19 1006.7 - 0.0 - - - - - - -
15/11:30am 33.0 NW 13 19 1007.1 - 0.0 - - - - - - -
15/11:00am 31.8 WNW 15 19 1007.3 - 0.0 - - - - - - -
15/10:30am 30.7 WNW 15 21 1007.4 - 0.0 - - - - - - -
15/10:00am 31.1 WNW 14 19 1007.2 - 0.0 - - - - - - -
15/09:30am 30.2 NW 13 18 1007.2 - 0.0 - - - - - - -
15/09:00am 29.3 NW 13 17 1007.2 - 0.0 - - - - - - -
15/08:30am 27.3 NW 13 17 1007.2 - 0.0 - - - - - - -
15/08:00am 26.3 NW 11 15 1006.9 - 0.0 - - - - - - -
15/07:30am 25.5 NNW 11 15 1006.7 - 0.0 - - - - - - -
15/07:00am 25.0 NNW 10 14 1006.4 - 0.0 - - - - - - -
15/06:30am 24.5 NNW 10 14 1006.2 - 0.0 - - - - - - -
15/06:00am 24.2 NNW 9 13 1006.0 - 0.0 - - - - - - -
15/05:30am 24.2 NW 10 13 1005.7 - 0.0 - - - - - - -
15/05:00am 24.3 NW 9 13 1005.6 - 0.0 - - - - - - -
15/04:30am 24.3 NW 9 12 1005.3 - 0.0 - - - - - - -
15/04:00am 24.2 NW 10 13 1005.1 - 0.0 - - - - - - -
15/03:30am 24.2 NW 11 14 1004.9 - 0.0 - - - - - - -
15/03:00am 24.2 NW 10 13 1004.9 - 0.0 - - - - - - -
15/02:30am 23.9 NW 7 10 1004.8 - 0.0 - - - - - - -
15/02:00am 23.9 NW 8 11 1004.8 - 0.0 - - - - - - -
15/01:30am 24.1 NW 9 11 1004.7 - 0.0 - - - - - - -
15/01:00am 24.3 WNW 11 13 1004.8 - 0.0 - - - - - - -
15/12:30am 24.4 WNW 10 13 1005.0 - 0.0 - - - - - - -
15/12:00am 24.3 WNW 8 11 1005.2 - 0.0 - - - - - - -
 
Date/Time
WST
Temp
°C
Wind Pressure Rain since
9am
mm
Weather Cloud Vis
km
Sea
Height
m
Swell
Dir  Spd
kts
Gust
kts
hPa Trend Height
m
Period
s
Dir
14/11:30pm 24.2 W 10 13 1005.1 - 0.0 - - - - - - -
14/11:00pm 24.4 W 11 14 1005.2 - 0.0 - - - - - - -
14/10:30pm 24.6 W 11 15 1004.9 - 0.0 - - - - - - -
14/10:00pm 24.8 W 11 15 1004.9 - 0.0 - - - - - - -
14/09:30pm 25.0 W 11 14 1004.8 - 0.0 - - - - - - -
14/09:00pm 25.3 W 11 14 1004.7 - 0.0 - - - - - - -
14/08:30pm 25.6 W 11 14 1004.4 - 0.0 - - - - - - -
14/08:00pm 26.0 W 10 13 1004.0 - 0.0 - - - - - - -
14/07:30pm 26.4 WSW 10 14 1003.3 - 0.0 - - - - - - -
14/07:00pm 26.8 WSW 12 16 1002.9 - 0.0 - - - - - - -
14/06:30pm 27.2 W 10 14 1002.6 - 0.0 - - - - - - -
14/06:00pm 28.0 W 10 14 1002.6 - 0.0 - - - - - - -
14/05:30pm 28.5 WSW 9 11 1002.4 - 0.0 - - - - - - -
14/05:00pm 28.3 SW 10 13 1002.2 - 0.0 - - - - - - -
14/04:30pm 28.5 WSW 6 8 1002.1 - 0.0 - - - - - - -
14/04:00pm 28.3 SW 8 11 1002.0 - 0.0 - - - - - - -
14/03:30pm 28.2 SSW 10 13 1002.1 - 0.0 - - - - - - -
14/03:00pm 28.0 SSW 12 15 1002.3 - 0.0 - - - - - - -
14/02:30pm 28.5 SW 14 19 1002.3 - 0.0 - - - - - - -
14/02:00pm 29.7 SSW 12 18 1002.3 - 0.0 - - - - - - -
14/01:30pm 30.0 S 13 19 1002.3 - 0.0 - - - - - - -
14/01:00pm 30.3 SSE 13 20 1002.4 - 0.0 - - - - - - -
14/12:30pm 31.2 SSE 14 21 1002.7 - 0.0 - - - - - - -
14/12:00pm 30.0 SSE 16 24 1003.1 - 0.0 - - - - - - -
14/11:30am 30.1 SSE 17 27 1003.4 - 0.0 - - - - - - -
14/11:00am 30.6 SE 20 28 1003.5 - 0.0 - - - - - - -
14/10:30am 29.3 SE 19 26 1003.6 - 0.0 - - - - - - -
14/10:01am 30.4 SE 17 27 1003.5 - 0.0 - - - - - - -
14/10:00am 30.4 SE 18 27 1003.5 - 0.0 - - - - - - -
14/09:56am 31.2 SE 17 27 1003.5 - 0.0 - - - - - - -
14/09:30am 30.7 SE 17 24 1003.3 - 0.0 - - - - - - -
14/09:05am 30.0 SE 16 27 1003.4 - 0.0 - - - - - - -
14/09:00am 30.4 SE 16 22 1003.5 - 0.0 - - - - - - -
14/08:30am 29.8 SE 16 25 1003.5 - 0.0 - - - - - - -
14/08:00am 30.8 SE 12 18 1003.5 - 0.0 - - - - - - -
14/07:30am 28.5 ESE 15 21 1003.5 - 0.0 - - - - - - -
14/07:00am 29.0 SE 13 20 1003.3 - 0.0 - - - - - - -
14/06:30am 28.8 SE 11 16 1003.1 - 0.0 - - - - - - -
14/06:00am 28.4 SE 8 11 1003.2 - 0.0 - - - - - - -
14/05:30am 28.1 SE 7 10 1003.0 - 0.0 - - - - - - -
14/05:00am 28.0 SSE 8 11 1002.8 - 0.0 - - - - - - -
14/04:30am 28.3 ESE 8 11 1002.8 - 0.0 - - - - - - -
14/04:00am 28.2 SE 7 9 1002.5 - 0.0 - - - - - - -
14/03:30am 28.3 SE 6 8 1002.5 - 0.0 - - - - - - -

Other Formats:

Comma delimited format used in spreadsheet applications
http://www.bom.gov.au/fwo/IDW60701/IDW60701.95402.axf

JavaScript Object Notation format (JSON) in row-major order
http://www.bom.gov.au/fwo/IDW60701/IDW60701.95402.json